sensor_id;sensor_type;location;lat;lon;timestamp;temperature;humidity
56256;DHT22;57229;51.432;-2.598;2024-02-21T00:00:40;9.60;99.90
56256;DHT22;57229;51.432;-2.598;2024-02-21T00:03:07;10.00;99.90
56256;DHT22;57229;51.432;-2.598;2024-02-21T00:05:33;9.80;99.90
56256;DHT22;57229;51.432;-2.598;2024-02-21T00:07:59;10.10;99.90
56256;DHT22;57229;51.432;-2.598;2024-02-21T00:10:25;9.70;99.90
56256;DHT22;57229;51.432;-2.598;2024-02-21T00:12:51;9.70;99.90
56256;DHT22;57229;51.432;-2.598;2024-02-21T00:15:17;9.70;99.90
56256;DHT22;57229;51.432;-2.598;2024-02-21T00:17:44;9.70;99.90
56256;DHT22;57229;51.432;-2.598;2024-02-21T00:20:10;9.70;99.90
56256;DHT22;57229;51.432;-2.598;2024-02-21T00:22:36;9.70;99.90
56256;DHT22;57229;51.432;-2.598;2024-02-21T00:25:01;10.20;99.90
56256;DHT22;57229;51.432;-2.598;2024-02-21T00:27:27;9.80;99.90
56256;DHT22;57229;51.432;-2.598;2024-02-21T00:29:53;9.90;99.90
56256;DHT22;57229;51.432;-2.598;2024-02-21T00:32:18;9.90;99.90
56256;DHT22;57229;51.432;-2.598;2024-02-21T00:34:44;10.20;99.90
56256;DHT22;57229;51.432;-2.598;2024-02-21T00:37:09;10.00;99.90
56256;DHT22;57229;51.432;-2.598;2024-02-21T00:39:35;10.10;99.90
56256;DHT22;57229;51.432;-2.598;2024-02-21T00:42:01;9.90;99.90
56256;DHT22;57229;51.432;-2.598;2024-02-21T00:44:26;9.80;99.90
56256;DHT22;57229;51.432;-2.598;2024-02-21T00:46:52;9.90;99.90
56256;DHT22;57229;51.432;-2.598;2024-02-21T00:49:18;9.90;99.90
56256;DHT22;57229;51.432;-2.598;2024-02-21T00:51:43;9.90;99.90
56256;DHT22;57229;51.432;-2.598;2024-02-21T00:54:09;9.90;99.90
56256;DHT22;57229;51.432;-2.598;2024-02-21T00:56:35;10.00;99.90
56256;DHT22;57229;51.432;-2.598;2024-02-21T00:59:00;10.70;99.90
56256;DHT22;57229;51.432;-2.598;2024-02-21T01:01:26;10.30;99.90
56256;DHT22;57229;51.432;-2.598;2024-02-21T01:03:52;9.80;99.90
56256;DHT22;57229;51.432;-2.598;2024-02-21T01:06:20;10.70;99.90
56256;DHT22;57229;51.432;-2.598;2024-02-21T01:08:47;10.10;99.90
56256;DHT22;57229;51.432;-2.598;2024-02-21T01:11:14;9.90;99.90
56256;DHT22;57229;51.432;-2.598;2024-02-21T01:13:39;9.90;99.90
56256;DHT22;57229;51.432;-2.598;2024-02-21T01:16:06;10.10;99.90
56256;DHT22;57229;51.432;-2.598;2024-02-21T01:18:33;9.90;99.90
56256;DHT22;57229;51.432;-2.598;2024-02-21T01:20:58;9.90;99.90
56256;DHT22;57229;51.432;-2.598;2024-02-21T01:23:24;10.70;99.90
56256;DHT22;57229;51.432;-2.598;2024-02-21T01:26:10;10.00;99.90
56256;DHT22;57229;51.432;-2.598;2024-02-21T01:28:38;9.90;99.90
56256;DHT22;57229;51.432;-2.598;2024-02-21T01:31:04;9.90;99.90
56256;DHT22;57229;51.432;-2.598;2024-02-21T01:33:29;9.90;99.90
56256;DHT22;57229;51.432;-2.598;2024-02-21T01:36:01;10.50;99.90
56256;DHT22;57229;51.432;-2.598;2024-02-21T01:38:26;10.30;99.90
56256;DHT22;57229;51.432;-2.598;2024-02-21T01:40:52;11.10;99.90
56256;DHT22;57229;51.432;-2.598;2024-02-21T01:43:19;11.20;99.90
56256;DHT22;57229;51.432;-2.598;2024-02-21T01:45:49;9.90;99.90
56256;DHT22;57229;51.432;-2.598;2024-02-21T01:48:17;9.90;99.90
56256;DHT22;57229;51.432;-2.598;2024-02-21T01:50:44;9.90;99.90
56256;DHT22;57229;51.432;-2.598;2024-02-21T01:53:10;11.20;99.90
56256;DHT22;57229;51.432;-2.598;2024-02-21T01:55:36;9.90;99.90
56256;DHT22;57229;51.432;-2.598;2024-02-21T01:58:02;9.90;99.90
56256;DHT22;57229;51.432;-2.598;2024-02-21T02:00:28;9.90;99.90
56256;DHT22;57229;51.432;-2.598;2024-02-21T02:02:54;9.90;99.90
56256;DHT22;57229;51.432;-2.598;2024-02-21T02:08:23;10.00;99.90
56256;DHT22;57229;51.432;-2.598;2024-02-21T02:10:49;10.00;99.90
56256;DHT22;57229;51.432;-2.598;2024-02-21T02:13:15;10.00;99.90
56256;DHT22;57229;51.432;-2.598;2024-02-21T02:15:45;10.00;99.90
56256;DHT22;57229;51.432;-2.598;2024-02-21T02:18:12;9.90;99.90
56256;DHT22;57229;51.432;-2.598;2024-02-21T02:20:37;10.00;99.90
56256;DHT22;57229;51.432;-2.598;2024-02-21T02:23:10;10.00;99.90
56256;DHT22;57229;51.432;-2.598;2024-02-21T02:25:36;10.20;99.90
56256;DHT22;57229;51.432;-2.598;2024-02-21T02:28:06;10.00;99.90
56256;DHT22;57229;51.432;-2.598;2024-02-21T02:30:36;10.10;99.90
56256;DHT22;57229;51.432;-2.598;2024-02-21T02:33:04;10.80;99.90
56256;DHT22;57229;51.432;-2.598;2024-02-21T02:35:30;9.90;99.90
56256;DHT22;57229;51.432;-2.598;2024-02-21T02:37:56;9.90;99.90
56256;DHT22;57229;51.432;-2.598;2024-02-21T02:40:22;9.90;99.90
56256;DHT22;57229;51.432;-2.598;2024-02-21T02:42:48;9.80;99.90
56256;DHT22;57229;51.432;-2.598;2024-02-21T02:45:15;9.90;99.90
56256;DHT22;57229;51.432;-2.598;2024-02-21T02:47:41;10.00;99.90
56256;DHT22;57229;51.432;-2.598;2024-02-21T02:50:07;9.70;99.90
56256;DHT22;57229;51.432;-2.598;2024-02-21T02:52:39;9.60;99.90
56256;DHT22;57229;51.432;-2.598;2024-02-21T02:55:05;9.60;99.90
56256;DHT22;57229;51.432;-2.598;2024-02-21T02:57:32;9.60;99.90
56256;DHT22;57229;51.432;-2.598;2024-02-21T02:59:57;9.60;99.90
56256;DHT22;57229;51.432;-2.598;2024-02-21T03:02:23;9.60;99.90
56256;DHT22;57229;51.432;-2.598;2024-02-21T03:04:49;10.00;99.90
56256;DHT22;57229;51.432;-2.598;2024-02-21T03:07:17;9.60;99.90
56256;DHT22;57229;51.432;-2.598;2024-02-21T03:09:42;10.70;99.90
56256;DHT22;57229;51.432;-2.598;2024-02-21T03:12:08;9.40;99.90
56256;DHT22;57229;51.432;-2.598;2024-02-21T03:14:35;9.90;99.90
56256;DHT22;57229;51.432;-2.598;2024-02-21T03:17:01;8.20;99.90
56256;DHT22;57229;51.432;-2.598;2024-02-21T03:19:30;9.30;99.90
56256;DHT22;57229;51.432;-2.598;2024-02-21T03:21:56;9.30;99.90
56256;DHT22;57229;51.432;-2.598;2024-02-21T03:24:22;9.30;99.90
56256;DHT22;57229;51.432;-2.598;2024-02-21T03:26:48;8.80;99.90
56256;DHT22;57229;51.432;-2.598;2024-02-21T03:29:15;9.20;99.90
56256;DHT22;57229;51.432;-2.598;2024-02-21T03:31:41;10.50;99.90
56256;DHT22;57229;51.432;-2.598;2024-02-21T03:34:08;9.20;99.90
56256;DHT22;57229;51.432;-2.598;2024-02-21T03:36:33;9.10;99.90
56256;DHT22;57229;51.432;-2.598;2024-02-21T03:39:26;9.10;99.90
56256;DHT22;57229;51.432;-2.598;2024-02-21T03:41:51;9.10;99.90
56256;DHT22;57229;51.432;-2.598;2024-02-21T03:44:23;9.00;99.90
56256;DHT22;57229;51.432;-2.598;2024-02-21T03:46:49;9.10;99.90
56256;DHT22;57229;51.432;-2.598;2024-02-21T03:49:15;8.00;99.90
56256;DHT22;57229;51.432;-2.598;2024-02-21T03:51:41;9.40;99.90
56256;DHT22;57229;51.432;-2.598;2024-02-21T03:54:07;9.90;99.90
56256;DHT22;57229;51.432;-2.598;2024-02-21T03:56:32;9.00;99.90
56256;DHT22;57229;51.432;-2.598;2024-02-21T03:59:02;10.30;99.90
56256;DHT22;57229;51.432;-2.598;2024-02-21T04:01:28;9.00;99.90
56256;DHT22;57229;51.432;-2.598;2024-02-21T04:03:54;9.00;99.90
56256;DHT22;57229;51.432;-2.598;2024-02-21T04:06:24;9.00;99.90
56256;DHT22;57229;51.432;-2.598;2024-02-21T04:08:50;8.30;99.90
56256;DHT22;57229;51.432;-2.598;2024-02-21T04:11:15;8.90;99.90
56256;DHT22;57229;51.432;-2.598;2024-02-21T04:13:43;8.20;99.90
56256;DHT22;57229;51.432;-2.598;2024-02-21T04:16:09;8.90;99.90
56256;DHT22;57229;51.432;-2.598;2024-02-21T04:18:34;9.30;99.90
56256;DHT22;57229;51.432;-2.598;2024-02-21T04:21:00;10.00;99.90
56256;DHT22;57229;51.432;-2.598;2024-02-21T04:23:26;9.00;99.90
56256;DHT22;57229;51.432;-2.598;2024-02-21T04:25:54;9.00;99.90
56256;DHT22;57229;51.432;-2.598;2024-02-21T04:28:20;9.00;99.90
56256;DHT22;57229;51.432;-2.598;2024-02-21T04:30:46;9.00;99.90
56256;DHT22;57229;51.432;-2.598;2024-02-21T04:33:21;9.00;99.90
56256;DHT22;57229;51.432;-2.598;2024-02-21T04:35:47;9.00;99.90
56256;DHT22;57229;51.432;-2.598;2024-02-21T04:38:13;9.00;99.90
56256;DHT22;57229;51.432;-2.598;2024-02-21T04:40:46;9.00;99.90
56256;DHT22;57229;51.432;-2.598;2024-02-21T04:43:12;9.00;99.90
56256;DHT22;57229;51.432;-2.598;2024-02-21T04:45:47;9.00;99.90
56256;DHT22;57229;51.432;-2.598;2024-02-21T04:48:20;8.90;99.90
56256;DHT22;57229;51.432;-2.598;2024-02-21T04:50:46;9.00;99.90
56256;DHT22;57229;51.432;-2.598;2024-02-21T04:53:32;9.00;99.90
56256;DHT22;57229;51.432;-2.598;2024-02-21T04:55:58;9.00;99.90
56256;DHT22;57229;51.432;-2.598;2024-02-21T04:58:24;9.00;99.90
56256;DHT22;57229;51.432;-2.598;2024-02-21T05:00:50;9.00;99.90
56256;DHT22;57229;51.432;-2.598;2024-02-21T05:03:16;10.40;99.90
56256;DHT22;57229;51.432;-2.598;2024-02-21T05:05:42;9.00;99.90
56256;DHT22;57229;51.432;-2.598;2024-02-21T05:08:09;9.00;99.90
56256;DHT22;57229;51.432;-2.598;2024-02-21T05:10:36;9.00;99.90
56256;DHT22;57229;51.432;-2.598;2024-02-21T05:13:01;10.80;99.90
56256;DHT22;57229;51.432;-2.598;2024-02-21T05:15:27;9.00;99.90
56256;DHT22;57229;51.432;-2.598;2024-02-21T05:17:52;9.40;99.90
56256;DHT22;57229;51.432;-2.598;2024-02-21T05:20:18;10.90;99.90
56256;DHT22;57229;51.432;-2.598;2024-02-21T05:22:44;9.00;99.90
56256;DHT22;57229;51.432;-2.598;2024-02-21T05:25:10;10.20;99.90
56256;DHT22;57229;51.432;-2.598;2024-02-21T05:27:41;9.00;99.90
56256;DHT22;57229;51.432;-2.598;2024-02-21T05:30:12;9.00;99.90
56256;DHT22;57229;51.432;-2.598;2024-02-21T05:32:37;9.00;99.90
56256;DHT22;57229;51.432;-2.598;2024-02-21T05:35:07;8.90;99.90
56256;DHT22;57229;51.432;-2.598;2024-02-21T05:37:33;8.90;99.90
56256;DHT22;57229;51.432;-2.598;2024-02-21T05:39:58;10.00;99.90
56256;DHT22;57229;51.432;-2.598;2024-02-21T05:42:36;8.90;99.90
56256;DHT22;57229;51.432;-2.598;2024-02-21T05:45:05;8.90;99.90
56256;DHT22;57229;51.432;-2.598;2024-02-21T05:47:31;10.50;99.90
56256;DHT22;57229;51.432;-2.598;2024-02-21T05:49:57;8.60;99.90
56256;DHT22;57229;51.432;-2.598;2024-02-21T05:52:22;8.90;99.90
56256;DHT22;57229;51.432;-2.598;2024-02-21T05:54:55;8.80;99.90
56256;DHT22;57229;51.432;-2.598;2024-02-21T05:57:23;8.80;99.90
56256;DHT22;57229;51.432;-2.598;2024-02-21T05:59:49;9.10;99.90
56256;DHT22;57229;51.432;-2.598;2024-02-21T06:02:14;8.70;99.90
56256;DHT22;57229;51.432;-2.598;2024-02-21T06:04:40;8.70;99.90
56256;DHT22;57229;51.432;-2.598;2024-02-21T06:07:08;8.70;99.90
56256;DHT22;57229;51.432;-2.598;2024-02-21T06:09:34;10.20;99.90
56256;DHT22;57229;51.432;-2.598;2024-02-21T06:12:06;8.60;99.90
56256;DHT22;57229;51.432;-2.598;2024-02-21T06:14:31;8.60;99.90
56256;DHT22;57229;51.432;-2.598;2024-02-21T06:16:57;8.60;99.90
56256;DHT22;57229;51.432;-2.598;2024-02-21T06:19:23;8.60;99.90
56256;DHT22;57229;51.432;-2.598;2024-02-21T06:21:48;8.60;99.90
56256;DHT22;57229;51.432;-2.598;2024-02-21T06:24:14;9.60;99.90
56256;DHT22;57229;51.432;-2.598;2024-02-21T06:26:40;9.80;99.90
56256;DHT22;57229;51.432;-2.598;2024-02-21T06:29:06;8.60;99.90
56256;DHT22;57229;51.432;-2.598;2024-02-21T06:31:32;9.80;99.90
56256;DHT22;57229;51.432;-2.598;2024-02-21T06:33:58;8.60;99.90
56256;DHT22;57229;51.432;-2.598;2024-02-21T06:36:36;8.70;99.90
56256;DHT22;57229;51.432;-2.598;2024-02-21T06:39:02;8.70;99.90
56256;DHT22;57229;51.432;-2.598;2024-02-21T06:41:30;8.70;99.90
56256;DHT22;57229;51.432;-2.598;2024-02-21T06:43:58;8.80;99.90
56256;DHT22;57229;51.432;-2.598;2024-02-21T06:46:27;8.90;99.90
56256;DHT22;57229;51.432;-2.598;2024-02-21T06:48:54;8.80;99.90
56256;DHT22;57229;51.432;-2.598;2024-02-21T06:51:30;8.90;99.90
56256;DHT22;57229;51.432;-2.598;2024-02-21T06:53:56;8.90;99.90
56256;DHT22;57229;51.432;-2.598;2024-02-21T06:56:25;8.90;99.90
56256;DHT22;57229;51.432;-2.598;2024-02-21T06:58:55;9.00;99.90
56256;DHT22;57229;51.432;-2.598;2024-02-21T07:01:21;9.00;99.90
56256;DHT22;57229;51.432;-2.598;2024-02-21T07:03:50;9.00;99.90
56256;DHT22;57229;51.432;-2.598;2024-02-21T07:06:18;9.00;99.90
56256;DHT22;57229;51.432;-2.598;2024-02-21T07:08:43;9.90;99.90
56256;DHT22;57229;51.432;-2.598;2024-02-21T07:11:09;9.10;99.90
56256;DHT22;57229;51.432;-2.598;2024-02-21T07:13:35;9.10;99.90
56256;DHT22;57229;51.432;-2.598;2024-02-21T07:16:01;8.80;99.90
56256;DHT22;57229;51.432;-2.598;2024-02-21T07:18:26;9.10;99.90
56256;DHT22;57229;51.432;-2.598;2024-02-21T07:20:52;9.50;99.90
56256;DHT22;57229;51.432;-2.598;2024-02-21T07:23:18;10.00;99.90
56256;DHT22;57229;51.432;-2.598;2024-02-21T07:25:44;9.20;99.90
56256;DHT22;57229;51.432;-2.598;2024-02-21T07:28:10;9.20;99.90
56256;DHT22;57229;51.432;-2.598;2024-02-21T07:30:36;10.90;99.90
56256;DHT22;57229;51.432;-2.598;2024-02-21T07:33:02;9.60;99.90
56256;DHT22;57229;51.432;-2.598;2024-02-21T07:35:28;9.30;99.90
56256;DHT22;57229;51.432;-2.598;2024-02-21T07:37:54;9.30;99.90
56256;DHT22;57229;51.432;-2.598;2024-02-21T07:40:19;9.40;99.90
56256;DHT22;57229;51.432;-2.598;2024-02-21T07:42:45;9.40;99.90
56256;DHT22;57229;51.432;-2.598;2024-02-21T07:45:11;9.90;99.90
56256;DHT22;57229;51.432;-2.598;2024-02-21T07:47:37;9.30;99.90
56256;DHT22;57229;51.432;-2.598;2024-02-21T07:50:03;9.40;99.90
56256;DHT22;57229;51.432;-2.598;2024-02-21T07:52:29;9.40;99.90
56256;DHT22;57229;51.432;-2.598;2024-02-21T07:54:55;9.40;99.90
56256;DHT22;57229;51.432;-2.598;2024-02-21T07:57:21;9.30;99.90
56256;DHT22;57229;51.432;-2.598;2024-02-21T07:59:47;9.30;99.90
56256;DHT22;57229;51.432;-2.598;2024-02-21T08:02:14;11.00;99.90
56256;DHT22;57229;51.432;-2.598;2024-02-21T08:04:40;9.60;99.90
56256;DHT22;57229;51.432;-2.598;2024-02-21T08:07:09;10.80;99.90
56256;DHT22;57229;51.432;-2.598;2024-02-21T08:09:35;9.30;99.90
56256;DHT22;57229;51.432;-2.598;2024-02-21T08:12:05;9.30;99.90
56256;DHT22;57229;51.432;-2.598;2024-02-21T08:14:31;9.30;99.90
56256;DHT22;57229;51.432;-2.598;2024-02-21T08:16:56;9.30;99.90
56256;DHT22;57229;51.432;-2.598;2024-02-21T08:19:22;9.30;99.90
56256;DHT22;57229;51.432;-2.598;2024-02-21T08:21:48;9.30;99.90
56256;DHT22;57229;51.432;-2.598;2024-02-21T08:24:16;9.30;99.90
56256;DHT22;57229;51.432;-2.598;2024-02-21T08:26:43;9.30;99.90
56256;DHT22;57229;51.432;-2.598;2024-02-21T08:29:10;9.30;99.90
56256;DHT22;57229;51.432;-2.598;2024-02-21T08:31:36;9.30;99.90
56256;DHT22;57229;51.432;-2.598;2024-02-21T08:34:01;10.10;99.90
56256;DHT22;57229;51.432;-2.598;2024-02-21T08:36:30;9.30;99.90
56256;DHT22;57229;51.432;-2.598;2024-02-21T08:38:56;9.30;99.90
56256;DHT22;57229;51.432;-2.598;2024-02-21T08:41:23;9.40;99.90
56256;DHT22;57229;51.432;-2.598;2024-02-21T08:43:51;9.40;99.90
56256;DHT22;57229;51.432;-2.598;2024-02-21T08:46:17;9.40;99.90
56256;DHT22;57229;51.432;-2.598;2024-02-21T08:48:43;9.50;99.90
56256;DHT22;57229;51.432;-2.598;2024-02-21T08:51:12;9.40;99.90
56256;DHT22;57229;51.432;-2.598;2024-02-21T08:53:37;9.40;99.90
56256;DHT22;57229;51.432;-2.598;2024-02-21T08:56:10;9.40;99.90
56256;DHT22;57229;51.432;-2.598;2024-02-21T08:58:41;9.40;99.90
56256;DHT22;57229;51.432;-2.598;2024-02-21T09:01:08;9.40;99.90
56256;DHT22;57229;51.432;-2.598;2024-02-21T09:03:37;9.40;99.90
56256;DHT22;57229;51.432;-2.598;2024-02-21T09:06:07;9.40;99.90
56256;DHT22;57229;51.432;-2.598;2024-02-21T09:08:33;9.50;99.90
56256;DHT22;57229;51.432;-2.598;2024-02-21T09:11:00;9.50;99.90
56256;DHT22;57229;51.432;-2.598;2024-02-21T09:13:47;9.80;99.90
56256;DHT22;57229;51.432;-2.598;2024-02-21T09:16:13;9.50;99.90
56256;DHT22;57229;51.432;-2.598;2024-02-21T09:18:45;9.50;99.90
56256;DHT22;57229;51.432;-2.598;2024-02-21T09:21:12;9.60;99.90
56256;DHT22;57229;51.432;-2.598;2024-02-21T09:23:38;9.60;99.90
56256;DHT22;57229;51.432;-2.598;2024-02-21T09:26:03;9.60;99.90
56256;DHT22;57229;51.432;-2.598;2024-02-21T09:28:30;9.60;99.90
56256;DHT22;57229;51.432;-2.598;2024-02-21T09:30:55;9.50;99.90
56256;DHT22;57229;51.432;-2.598;2024-02-21T09:33:21;9.60;99.90
56256;DHT22;57229;51.432;-2.598;2024-02-21T09:35:46;9.60;99.90
56256;DHT22;57229;51.432;-2.598;2024-02-21T09:38:13;9.70;99.90
56256;DHT22;57229;51.432;-2.598;2024-02-21T09:40:39;9.70;99.90
56256;DHT22;57229;51.432;-2.598;2024-02-21T09:43:07;9.70;99.90
56256;DHT22;57229;51.432;-2.598;2024-02-21T09:45:34;9.70;99.90
56256;DHT22;57229;51.432;-2.598;2024-02-21T09:50:53;9.70;99.90
56256;DHT22;57229;51.432;-2.598;2024-02-21T09:53:20;9.80;99.90
56256;DHT22;57229;51.432;-2.598;2024-02-21T09:55:48;9.90;99.90
56256;DHT22;57229;51.432;-2.598;2024-02-21T09:58:14;9.70;99.90
56256;DHT22;57229;51.432;-2.598;2024-02-21T10:00:40;9.80;99.90
56256;DHT22;57229;51.432;-2.598;2024-02-21T10:03:06;9.80;99.90
56256;DHT22;57229;51.432;-2.598;2024-02-21T10:05:34;9.80;99.90
56256;DHT22;57229;51.432;-2.598;2024-02-21T10:08:01;10.70;99.90
56256;DHT22;57229;51.432;-2.598;2024-02-21T10:10:26;9.80;99.90
56256;DHT22;57229;51.432;-2.598;2024-02-21T10:12:53;9.80;99.90
56256;DHT22;57229;51.432;-2.598;2024-02-21T10:15:23;9.80;99.90
56256;DHT22;57229;51.432;-2.598;2024-02-21T10:17:58;9.70;99.90
56256;DHT22;57229;51.432;-2.598;2024-02-21T10:20:24;9.80;99.90
56256;DHT22;57229;51.432;-2.598;2024-02-21T10:23:06;9.80;99.90
56256;DHT22;57229;51.432;-2.598;2024-02-21T10:25:35;9.80;99.90
56256;DHT22;57229;51.432;-2.598;2024-02-21T10:28:04;9.80;99.90
56256;DHT22;57229;51.432;-2.598;2024-02-21T10:30:30;9.80;99.90
56256;DHT22;57229;51.432;-2.598;2024-02-21T10:32:56;9.80;99.90
56256;DHT22;57229;51.432;-2.598;2024-02-21T10:35:32;9.90;99.90
56256;DHT22;57229;51.432;-2.598;2024-02-21T10:37:59;9.80;99.90
56256;DHT22;57229;51.432;-2.598;2024-02-21T10:40:27;9.90;99.90
56256;DHT22;57229;51.432;-2.598;2024-02-21T10:42:59;9.80;99.90
56256;DHT22;57229;51.432;-2.598;2024-02-21T10:45:35;9.90;99.90
56256;DHT22;57229;51.432;-2.598;2024-02-21T10:48:13;9.90;99.90
56256;DHT22;57229;51.432;-2.598;2024-02-21T10:50:57;9.90;99.90
56256;DHT22;57229;51.432;-2.598;2024-02-21T10:55:58;9.90;99.90
56256;DHT22;57229;51.432;-2.598;2024-02-21T10:58:26;10.00;99.90
56256;DHT22;57229;51.432;-2.598;2024-02-21T11:00:54;9.90;99.90
56256;DHT22;57229;51.432;-2.598;2024-02-21T11:03:20;9.90;99.90
56256;DHT22;57229;51.432;-2.598;2024-02-21T11:05:46;9.90;99.90
56256;DHT22;57229;51.432;-2.598;2024-02-21T11:08:12;10.00;99.90
56256;DHT22;57229;51.432;-2.598;2024-02-21T11:10:38;10.00;99.90
56256;DHT22;57229;51.432;-2.598;2024-02-21T11:15:32;10.00;99.90
56256;DHT22;57229;51.432;-2.598;2024-02-21T11:17:58;10.10;99.90
56256;DHT22;57229;51.432;-2.598;2024-02-21T11:20:34;10.20;99.90
56256;DHT22;57229;51.432;-2.598;2024-02-21T11:23:00;10.20;99.90
56256;DHT22;57229;51.432;-2.598;2024-02-21T11:25:29;10.30;99.90
56256;DHT22;57229;51.432;-2.598;2024-02-21T11:28:00;10.40;99.90
56256;DHT22;57229;51.432;-2.598;2024-02-21T11:30:27;10.60;99.90
56256;DHT22;57229;51.432;-2.598;2024-02-21T11:33:02;10.50;99.90
56256;DHT22;57229;51.432;-2.598;2024-02-21T11:35:35;10.50;99.90
56256;DHT22;57229;51.432;-2.598;2024-02-21T11:38:12;10.50;99.90
56256;DHT22;57229;51.432;-2.598;2024-02-21T11:40:46;10.40;99.90
56256;DHT22;57229;51.432;-2.598;2024-02-21T11:43:11;10.50;99.90
56256;DHT22;57229;51.432;-2.598;2024-02-21T11:45:37;10.50;99.90
56256;DHT22;57229;51.432;-2.598;2024-02-21T11:48:06;10.50;99.90
56256;DHT22;57229;51.432;-2.598;2024-02-21T11:50:32;10.50;99.90
56256;DHT22;57229;51.432;-2.598;2024-02-21T11:52:58;10.60;99.90
56256;DHT22;57229;51.432;-2.598;2024-02-21T11:55:24;10.60;99.90
56256;DHT22;57229;51.432;-2.598;2024-02-21T11:57:52;10.60;99.90
56256;DHT22;57229;51.432;-2.598;2024-02-21T12:00:21;10.90;99.90
56256;DHT22;57229;51.432;-2.598;2024-02-21T12:02:47;10.70;99.90
56256;DHT22;57229;51.432;-2.598;2024-02-21T12:05:13;11.00;99.90
56256;DHT22;57229;51.432;-2.598;2024-02-21T12:07:40;10.70;99.90
56256;DHT22;57229;51.432;-2.598;2024-02-21T12:10:10;10.80;99.90
56256;DHT22;57229;51.432;-2.598;2024-02-21T12:12:36;10.70;99.90
56256;DHT22;57229;51.432;-2.598;2024-02-21T12:15:03;10.80;99.90
56256;DHT22;57229;51.432;-2.598;2024-02-21T12:17:33;10.80;99.90
56256;DHT22;57229;51.432;-2.598;2024-02-21T12:20:00;10.90;99.90
56256;DHT22;57229;51.432;-2.598;2024-02-21T12:22:25;11.00;99.90
56256;DHT22;57229;51.432;-2.598;2024-02-21T12:24:52;10.90;99.90
56256;DHT22;57229;51.432;-2.598;2024-02-21T12:27:18;10.90;99.90
56256;DHT22;57229;51.432;-2.598;2024-02-21T12:29:43;11.00;99.90
56256;DHT22;57229;51.432;-2.598;2024-02-21T12:32:09;11.10;99.90
56256;DHT22;57229;51.432;-2.598;2024-02-21T12:34:34;11.30;99.90
56256;DHT22;57229;51.432;-2.598;2024-02-21T12:37:02;11.10;99.90
56256;DHT22;57229;51.432;-2.598;2024-02-21T12:39:28;11.10;99.90
56256;DHT22;57229;51.432;-2.598;2024-02-21T12:41:54;11.10;99.90
56256;DHT22;57229;51.432;-2.598;2024-02-21T12:44:21;11.30;99.90
56256;DHT22;57229;51.432;-2.598;2024-02-21T12:46:47;11.30;99.90
56256;DHT22;57229;51.432;-2.598;2024-02-21T12:49:17;11.30;99.90
56256;DHT22;57229;51.432;-2.598;2024-02-21T12:51:43;11.40;99.90
56256;DHT22;57229;51.432;-2.598;2024-02-21T12:54:09;11.40;99.90
56256;DHT22;57229;51.432;-2.598;2024-02-21T12:56:36;11.60;99.90
56256;DHT22;57229;51.432;-2.598;2024-02-21T12:59:02;11.60;99.90
56256;DHT22;57229;51.432;-2.598;2024-02-21T13:01:27;11.70;99.90
56256;DHT22;57229;51.432;-2.598;2024-02-21T13:03:53;11.80;99.90
56256;DHT22;57229;51.432;-2.598;2024-02-21T13:06:23;12.60;99.90
56256;DHT22;57229;51.432;-2.598;2024-02-21T13:08:50;12.00;99.90
56256;DHT22;57229;51.432;-2.598;2024-02-21T13:11:16;12.00;99.90
56256;DHT22;57229;51.432;-2.598;2024-02-21T13:13:42;12.20;99.90
56256;DHT22;57229;51.432;-2.598;2024-02-21T13:16:07;11.90;99.90
56256;DHT22;57229;51.432;-2.598;2024-02-21T13:18:34;11.90;99.90
56256;DHT22;57229;51.432;-2.598;2024-02-21T13:21:00;11.90;99.90
56256;DHT22;57229;51.432;-2.598;2024-02-21T13:23:26;11.90;99.90
56256;DHT22;57229;51.432;-2.598;2024-02-21T13:25:52;11.90;99.90
56256;DHT22;57229;51.432;-2.598;2024-02-21T13:28:39;12.00;99.90
56256;DHT22;57229;51.432;-2.598;2024-02-21T13:31:18;11.70;99.90
56256;DHT22;57229;51.432;-2.598;2024-02-21T13:34:19;12.00;99.90
56256;DHT22;57229;51.432;-2.598;2024-02-21T13:37:05;12.00;99.90
56256;DHT22;57229;51.432;-2.598;2024-02-21T13:39:32;12.00;99.90
56256;DHT22;57229;51.432;-2.598;2024-02-21T13:42:00;12.00;99.90
56256;DHT22;57229;51.432;-2.598;2024-02-21T13:44:57;12.10;99.90
56256;DHT22;57229;51.432;-2.598;2024-02-21T13:47:29;12.10;99.90
56256;DHT22;57229;51.432;-2.598;2024-02-21T13:50:04;11.90;99.90
56256;DHT22;57229;51.432;-2.598;2024-02-21T13:52:31;12.10;99.90
56256;DHT22;57229;51.432;-2.598;2024-02-21T13:54:57;12.20;99.90
56256;DHT22;57229;51.432;-2.598;2024-02-21T13:57:29;12.10;99.90
56256;DHT22;57229;51.432;-2.598;2024-02-21T14:00:01;12.20;99.90
56256;DHT22;57229;51.432;-2.598;2024-02-21T14:02:47;11.60;99.90
56256;DHT22;57229;51.432;-2.598;2024-02-21T14:05:13;12.10;99.90
56256;DHT22;57229;51.432;-2.598;2024-02-21T14:07:40;12.20;99.90
56256;DHT22;57229;51.432;-2.598;2024-02-21T14:10:09;12.10;99.90
56256;DHT22;57229;51.432;-2.598;2024-02-21T14:12:43;12.10;99.90
56256;DHT22;57229;51.432;-2.598;2024-02-21T14:15:09;12.10;99.90
56256;DHT22;57229;51.432;-2.598;2024-02-21T14:17:36;12.00;99.90
56256;DHT22;57229;51.432;-2.598;2024-02-21T14:20:02;11.90;99.90
56256;DHT22;57229;51.432;-2.598;2024-02-21T14:22:33;11.80;99.90
56256;DHT22;57229;51.432;-2.598;2024-02-21T14:25:00;13.30;99.90
56256;DHT22;57229;51.432;-2.598;2024-02-21T14:27:46;11.70;99.90
56256;DHT22;57229;51.432;-2.598;2024-02-21T14:30:12;11.60;99.90
56256;DHT22;57229;51.432;-2.598;2024-02-21T14:32:40;11.50;99.90
56256;DHT22;57229;51.432;-2.598;2024-02-21T14:35:08;11.50;99.90
56256;DHT22;57229;51.432;-2.598;2024-02-21T14:37:58;11.00;99.90
56256;DHT22;57229;51.432;-2.598;2024-02-21T14:40:23;11.50;99.90
56256;DHT22;57229;51.432;-2.598;2024-02-21T14:42:49;12.00;99.90
56256;DHT22;57229;51.432;-2.598;2024-02-21T14:48:10;11.90;99.90
56256;DHT22;57229;51.432;-2.598;2024-02-21T14:50:57;11.50;99.90
56256;DHT22;57229;51.432;-2.598;2024-02-21T14:53:29;11.50;99.90
56256;DHT22;57229;51.432;-2.598;2024-02-21T14:55:56;11.60;99.90
56256;DHT22;57229;51.432;-2.598;2024-02-21T14:58:23;11.40;99.90
56256;DHT22;57229;51.432;-2.598;2024-02-21T15:00:58;11.60;99.90
56256;DHT22;57229;51.432;-2.598;2024-02-21T15:03:27;11.40;99.90
56256;DHT22;57229;51.432;-2.598;2024-02-21T15:05:53;11.40;99.90
56256;DHT22;57229;51.432;-2.598;2024-02-21T15:09:23;11.40;99.90
56256;DHT22;57229;51.432;-2.598;2024-02-21T15:11:44;11.40;99.90
56256;DHT22;57229;51.432;-2.598;2024-02-21T15:14:39;11.50;99.90
56256;DHT22;57229;51.432;-2.598;2024-02-21T15:17:09;11.40;99.90
56256;DHT22;57229;51.432;-2.598;2024-02-21T15:19:35;11.40;99.90
56256;DHT22;57229;51.432;-2.598;2024-02-21T15:22:02;11.40;99.90
56256;DHT22;57229;51.432;-2.598;2024-02-21T15:24:28;11.30;99.90
56256;DHT22;57229;51.432;-2.598;2024-02-21T15:30:14;11.30;99.90
56256;DHT22;57229;51.432;-2.598;2024-02-21T15:32:40;11.30;99.90
56256;DHT22;57229;51.432;-2.598;2024-02-21T15:35:15;11.40;99.90
56256;DHT22;57229;51.432;-2.598;2024-02-21T15:38:07;11.20;99.90
56256;DHT22;57229;51.432;-2.598;2024-02-21T15:43:33;11.20;99.90
56256;DHT22;57229;51.432;-2.598;2024-02-21T15:45:58;11.10;99.90
56256;DHT22;57229;51.432;-2.598;2024-02-21T15:48:24;9.70;99.90
56256;DHT22;57229;51.432;-2.598;2024-02-21T15:51:25;11.10;99.90